Time;durP1;ratioP1;P1;durP2;ratioP2;P2;SDS_P1;SDS_P2;PMS_P1;PMS_P2;Temp;Humidity;BMP_temperature;BMP_pressure;BME280_temperature;BME280_humidity;BME280_pressure;Samples;Min_cycle;Max_cycle;Signal;HPM_P1;HPM_P2
2021/04/24 00:00:01;;;;;;;9.52;5.78;;;;;;;5.21;60.11;101454.19;5017795;28;20060;-75
2021/04/24 00:02:27;;;;;;;10.23;6.70;;;;;;;5.17;60.65;101456.63;5011890;28;20054;-76
2021/04/24 00:04:57;;;;;;;10.95;6.03;;;;;;;5.18;60.57;101451.94;4998023;28;20475;-75
2021/04/24 00:07:24;;;;;;;10.30;6.13;;;;;;;5.17;60.70;101448.34;4997476;28;20058;-76
2021/04/24 00:09:51;;;;;;;10.13;5.50;;;;;;;5.13;60.69;101447.16;4997830;28;20054;-75
2021/04/24 00:12:18;;;;;;;11.18;5.40;;;;;;;5.08;60.48;101450.69;4998689;28;20046;-75
2021/04/24 00:14:45;;;;;;;13.82;5.75;;;;;;;5.04;61.28;101454.19;4997399;28;20065;-76
2021/04/24 00:17:13;;;;;;;10.23;5.63;;;;;;;5.02;61.30;101454.47;4997275;28;20494;-76
2021/04/24 00:19:41;;;;;;;8.95;5.50;;;;;;;5.01;61.49;101455.53;4997366;28;20054;-76
2021/04/24 00:22:08;;;;;;;9.65;5.22;;;;;;;4.98;61.91;101455.25;4997666;28;20061;-76
2021/04/24 00:24:34;;;;;;;10.23;5.45;;;;;;;5.00;61.86;101442.00;4998069;28;20358;-76
2021/04/24 00:27:01;;;;;;;9.50;5.00;;;;;;;4.99;61.67;101452.19;4996596;28;20054;-76
2021/04/24 00:29:28;;;;;;;8.05;5.50;;;;;;;4.97;61.48;101448.84;4996468;28;20406;-76
2021/04/24 00:31:55;;;;;;;8.70;5.30;;;;;;;4.98;60.94;101449.72;4996934;28;20054;-75
2021/04/24 00:34:23;;;;;;;9.30;5.20;;;;;;;4.96;60.74;101449.13;4997295;28;20430;-75
2021/04/24 00:36:49;;;;;;;8.48;5.15;;;;;;;4.95;60.91;101450.22;4997094;28;20398;-76
2021/04/24 00:39:16;;;;;;;10.10;4.85;;;;;;;4.93;60.46;101446.84;4997093;28;20410;-76
2021/04/24 00:41:43;;;;;;;10.05;5.07;;;;;;;4.89;60.60;101449.28;4996989;28;20058;-76
2021/04/24 00:44:10;;;;;;;9.55;5.50;;;;;;;4.85;61.47;101448.97;4997211;28;20514;-76
2021/04/24 00:46:37;;;;;;;8.95;5.57;;;;;;;4.82;61.29;101452.22;4997527;28;20448;-76
2021/04/24 00:49:04;;;;;;;9.75;5.47;;;;;;;4.80;60.93;101448.88;4997133;28;20057;-76
2021/04/24 00:51:34;;;;;;;9.10;5.28;;;;;;;4.76;61.36;101446.88;4997887;28;20054;-76
2021/04/24 00:54:01;;;;;;;9.98;5.57;;;;;;;4.74;61.12;101449.03;4996968;28;20077;-76
2021/04/24 00:56:28;;;;;;;10.43;5.85;;;;;;;4.71;61.27;101446.81;4996739;28;20051;-75
2021/04/24 00:58:55;;;;;;;12.15;5.85;;;;;;;4.68;61.14;101446.22;5016329;28;20061;-75
2021/04/24 01:01:24;;;;;;;10.65;5.05;;;;;;;4.65;61.60;101443.94;5016699;28;20406;-76
2021/04/24 01:03:51;;;;;;;10.23;5.20;;;;;;;4.63;61.59;101446.13;5012621;28;20046;-76
2021/04/24 01:06:18;;;;;;;8.63;5.68;;;;;;;4.60;61.43;101443.88;4996490;28;20070;-75
2021/04/24 01:08:46;;;;;;;11.40;5.70;;;;;;;4.58;61.52;101442.47;4996868;28;20410;-75
2021/04/24 01:11:12;;;;;;;10.13;5.55;;;;;;;4.51;62.02;101439.00;4997443;28;20058;-76
2021/04/24 01:13:39;;;;;;;9.00;4.40;;;;;;;4.50;62.05;101445.63;4998405;28;20077;-76
2021/04/24 01:16:06;;;;;;;8.23;4.97;;;;;;;4.47;61.90;101439.53;5015978;28;20049;-76
2021/04/24 01:18:33;;;;;;;9.35;5.18;;;;;;;4.44;62.14;101440.00;5015610;28;20138;-76
2021/04/24 01:21:04;;;;;;;8.30;5.55;;;;;;;4.39;61.97;101442.69;5015989;28;20053;-76
2021/04/24 01:23:32;;;;;;;12.23;5.28;;;;;;;4.35;62.61;101436.00;5012573;28;20050;-76
2021/04/24 01:26:00;;;;;;;11.77;6.10;;;;;;;4.32;62.06;101430.97;4996390;28;20398;-76
2021/04/24 01:28:28;;;;;;;8.20;5.07;;;;;;;4.30;61.94;101427.63;4996213;28;20058;-76
2021/04/24 01:30:55;;;;;;;10.50;4.80;;;;;;;4.28;62.39;101435.31;4996345;28;20058;-76
2021/04/24 01:33:23;;;;;;;8.27;5.18;;;;;;;4.27;62.36;101439.16;4996539;28;20050;-76
2021/04/24 01:35:50;;;;;;;9.77;5.40;;;;;;;4.22;62.27;101430.78;4996947;28;20383;-76
2021/04/24 01:38:17;;;;;;;9.18;5.45;;;;;;;4.21;62.17;101429.94;4996388;28;20055;-76
2021/04/24 01:40:45;;;;;;;10.82;5.35;;;;;;;4.19;62.74;101428.53;4996054;28;20062;-76
2021/04/24 01:43:12;;;;;;;9.88;5.22;;;;;;;4.15;62.56;101430.13;4996875;28;20050;-76
2021/04/24 01:45:39;;;;;;;11.80;5.55;;;;;;;4.12;62.39;101425.94;4996253;28;20066;-75
2021/04/24 01:48:07;;;;;;;8.68;5.43;;;;;;;4.07;62.76;101429.44;4997188;28;20061;-76
2021/04/24 01:50:36;;;;;;;10.25;4.72;;;;;;;4.05;63.03;101420.59;4998336;28;20058;-75
2021/04/24 01:53:07;;;;;;;8.85;4.90;;;;;;;4.05;63.15;101412.31;4995769;28;20498;-76
2021/04/24 01:55:36;;;;;;;12.90;5.90;;;;;;;4.04;63.05;101418.91;4995616;28;20054;-75
2021/04/24 01:58:08;;;;;;;7.85;4.45;;;;;;;3.99;62.89;101416.06;5008458;28;20061;-75
2021/04/24 02:00:38;;;;;;;8.68;4.65;;;;;;;3.95;62.81;101420.38;5010408;28;20059;-75
2021/04/24 02:03:08;;;;;;;9.50;5.05;;;;;;;3.88;63.30;101414.16;4995163;28;20514;-75
2021/04/24 02:05:36;;;;;;;8.98;4.82;;;;;;;3.83;63.46;101416.84;4995002;28;20490;-75
2021/04/24 02:08:08;;;;;;;8.00;4.20;;;;;;;3.83;63.77;101422.34;4994974;28;20058;-75
2021/04/24 02:10:36;;;;;;;8.00;4.20;;;;;;;3.81;63.86;101419.84;4999279;28;20782;-76
2021/04/24 02:13:07;;;;;;;7.57;4.13;;;;;;;3.78;63.36;101420.34;5014984;28;20065;-75
2021/04/24 02:15:34;;;;;;;12.05;4.82;;;;;;;3.70;63.81;101429.00;5014739;28;20491;-75
2021/04/24 02:18:01;;;;;;;7.90;4.63;;;;;;;3.68;63.87;101430.31;5014316;28;20406;-75
2021/04/24 02:20:28;;;;;;;12.70;4.47;;;;;;;3.69;64.37;101430.06;5012974;28;20054;-75
2021/04/24 02:22:55;;;;;;;7.65;4.78;;;;;;;3.70;63.81;101429.00;5013701;28;20061;-76
2021/04/24 02:25:22;;;;;;;8.65;4.88;;;;;;;3.71;63.34;101427.06;4998053;28;20502;-76
2021/04/24 02:27:49;;;;;;;7.60;4.65;;;;;;;3.66;63.48;101425.06;4995024;28;20050;-76
2021/04/24 02:30:19;;;;;;;8.15;4.93;;;;;;;3.65;63.35;101431.63;4995703;28;20101;-75
2021/04/24 02:32:46;;;;;;;;;;;;;;;3.63;63.54;101437.41;4995002;28;20062;-75
2021/04/24 02:35:16;;;;;;;8.20;4.68;;;;;;;3.50;63.82;101432.16;4994741;28;19944;-75
2021/04/24 02:37:43;;;;;;;;;;;;;;;3.48;63.47;101426.06;4995564;28;20081;-75
2021/04/24 02:40:13;;;;;;;7.30;4.30;;;;;;;3.48;63.68;101426.06;4994562;28;19921;-75
2021/04/24 02:42:40;;;;;;;10.55;4.55;;;;;;;3.45;63.97;101437.56;4995161;28;20077;-75
2021/04/24 02:45:09;;;;;;;8.45;4.95;;;;;;;3.44;63.75;101430.38;4994083;28;20465;-76
2021/04/24 02:47:40;;;;;;;10.85;5.07;;;;;;;3.44;64.08;101435.88;4994383;28;20077;-75
2021/04/24 02:50:11;;;;;;;7.72;4.65;;;;;;;3.43;63.70;101434.22;4994526;28;20057;-75
2021/04/24 02:52:38;;;;;;;10.63;5.10;;;;;;;3.41;63.90;101437.22;4995762;28;20069;-75
2021/04/24 02:55:07;;;;;;;8.57;5.32;;;;;;;3.39;64.04;101441.28;4995472;28;20054;-75
2021/04/24 02:57:33;;;;;;;11.32;5.35;;;;;;;3.36;64.10;101439.00;5004108;28;20057;-75
2021/04/24 03:00:02;;;;;;;8.70;5.10;;;;;;;3.34;63.73;101441.16;5015010;28;20077;-76
2021/04/24 03:02:29;;;;;;;11.57;5.68;;;;;;;3.33;63.79;101439.50;5009522;28;20486;-75
2021/04/24 03:04:57;;;;;;;11.48;5.25;;;;;;;3.30;63.49;101439.97;4995877;28;20069;-75
2021/04/24 03:07:24;;;;;;;12.65;4.88;;;;;;;3.22;64.49;101442.03;4995350;28;20061;-76
2021/04/24 03:09:51;;;;;;;13.68;4.90;;;;;;;3.21;64.40;101445.88;4995523;28;20054;-76
2021/04/24 03:12:17;;;;;;;10.63;5.07;;;;;;;3.20;64.58;101437.84;4994787;28;20046;-76
2021/04/24 03:14:44;;;;;;;9.95;4.93;;;;;;;3.18;64.29;101432.59;4994945;28;20050;-76
2021/04/24 03:17:13;;;;;;;9.75;4.95;;;;;;;3.17;64.24;101436.44;4995245;28;20046;-76
2021/04/24 03:19:43;;;;;;;9.15;4.78;;;;;;;3.14;64.50;101434.16;4995027;28;20054;-76
2021/04/24 03:22:10;;;;;;;11.07;4.93;;;;;;;3.12;64.88;101433.53;4996152;28;20491;-75
2021/04/24 03:24:37;;;;;;;9.88;5.47;;;;;;;3.11;64.75;101431.88;4995523;28;20057;-76
2021/04/24 03:27:05;;;;;;;10.65;5.50;;;;;;;3.11;64.77;101440.16;4995136;28;20475;-76
2021/04/24 03:29:32;;;;;;;8.35;4.90;;;;;;;3.11;64.27;101434.63;4995169;28;20388;-75
2021/04/24 03:31:58;;;;;;;8.00;4.30;;;;;;;3.09;64.56;101436.78;4995058;28;20030;-75
2021/04/24 03:34:25;;;;;;;9.60;5.15;;;;;;;3.05;64.90;101432.84;4995969;28;20062;-75
2021/04/24 03:36:53;;;;;;;9.10;5.68;;;;;;;2.99;65.13;101437.38;4994718;28;20050;-75
2021/04/24 03:39:21;;;;;;;10.80;6.43;;;;;;;2.91;65.38;101434.16;4993753;28;20058;-75
2021/04/24 03:41:48;;;;;;;12.20;5.15;;;;;;;2.85;65.89;101446.97;4993696;28;20054;-75
2021/04/24 03:44:14;;;;;;;9.65;5.35;;;;;;;2.83;65.52;101438.09;4995250;28;20046;-75
2021/04/24 03:46:41;;;;;;;11.35;5.13;;;;;;;2.84;65.57;101437.88;4994109;28;20054;-75
2021/04/24 03:49:08;;;;;;;11.90;5.30;;;;;;;2.89;65.44;101439.06;4993996;28;20065;-75
2021/04/24 03:51:35;;;;;;;10.88;4.90;;;;;;;2.92;64.93;101447.69;4993569;28;20054;-76
2021/04/24 03:54:02;;;;;;;8.35;4.32;;;;;;;2.90;65.19;101452.59;4994031;28;20050;-75
2021/04/24 03:56:30;;;;;;;12.73;4.85;;;;;;;2.91;65.46;101448.75;4993641;28;20081;-75
2021/04/24 03:58:57;;;;;;;8.38;4.38;;;;;;;2.88;66.10;101451.13;5012922;28;20053;-75
2021/04/24 04:01:23;;;;;;;7.82;4.97;;;;;;;2.88;65.89;101451.13;5013467;28;20061;-75
2021/04/24 04:03:50;;;;;;;11.98;4.60;;;;;;;2.89;65.56;101450.06;5009732;28;20046;-75
2021/04/24 04:06:17;;;;;;;6.78;4.40;;;;;;;2.91;64.89;101457.00;4993541;28;20669;-75
2021/04/24 04:08:44;;;;;;;8.95;4.80;;;;;;;2.91;65.05;101453.44;4992907;28;20419;-77
2021/04/24 04:11:11;;;;;;;10.88;4.97;;;;;;;2.84;65.45;101456.31;4993181;28;20058;-75
2021/04/24 04:13:39;;;;;;;9.23;4.60;;;;;;;2.86;65.65;101454.16;4994217;28;20058;-74
2021/04/24 04:16:06;;;;;;;10.52;4.75;;;;;;;2.87;65.38;101450.31;4993545;28;20403;-75
2021/04/24 04:18:35;;;;;;;8.48;5.00;;;;;;;2.89;65.61;101453.66;4993275;28;20054;-75
2021/04/24 04:21:04;;;;;;;8.63;4.18;;;;;;;2.94;64.42;101450.19;4993852;28;20054;-76
2021/04/24 04:23:31;;;;;;;9.73;4.97;;;;;;;2.96;64.57;101457.16;4994358;28;20058;-75
2021/04/24 04:25:59;;;;;;;9.80;4.75;;;;;;;2.97;64.05;101457.97;4993478;28;20351;-75
2021/04/24 04:28:27;;;;;;;9.73;4.70;;;;;;;2.97;64.51;101458.81;4993442;28;20054;-75
2021/04/24 04:30:56;;;;;;;11.13;5.30;;;;;;;2.98;64.84;101459.63;4993826;28;20406;-75
2021/04/24 04:33:24;;;;;;;10.90;4.53;;;;;;;3.01;64.29;101460.00;4994744;28;20483;-76
2021/04/24 04:35:51;;;;;;;8.13;4.63;;;;;;;3.05;64.65;101457.63;5012754;28;20054;-76
2021/04/24 04:38:18;;;;;;;8.93;4.78;;;;;;;3.10;64.34;101457.72;5012336;28;20061;-75
2021/04/24 04:40:45;;;;;;;8.15;4.35;;;;;;;3.18;63.84;101464.78;5012635;28;20061;-75
2021/04/24 04:43:14;;;;;;;11.38;4.63;;;;;;;3.23;64.22;101459.38;5012962;28;20478;-75
2021/04/24 04:45:41;;;;;;;7.45;4.30;;;;;;;3.30;63.95;101456.50;4997834;28;20050;-77
2021/04/24 04:48:09;;;;;;;10.23;4.65;;;;;;;3.33;64.42;101453.28;4996206;28;20066;-76
2021/04/24 04:50:39;;;;;;;9.68;5.05;;;;;;;3.40;63.62;101456.72;4996809;28;20050;-75
2021/04/24 04:53:06;;;;;;;8.77;4.40;;;;;;;3.48;63.76;101459.09;4996551;28;20051;-75
2021/04/24 04:55:33;;;;;;;10.05;4.90;;;;;;;3.57;63.83;101456.81;4996916;28;20054;-77
2021/04/24 04:58:03;;;;;;;7.30;4.38;;;;;;;3.64;63.29;101458.34;5010042;28;20065;-76
2021/04/24 05:00:29;;;;;;;8.45;4.57;;;;;;;3.73;63.46;101460.72;5015995;28;20053;-76
2021/04/24 05:02:57;;;;;;;9.05;4.63;;;;;;;3.79;63.32;101457.81;5016062;28;20049;-75
2021/04/24 05:05:25;;;;;;;11.05;4.90;;;;;;;3.87;62.85;101462.13;4999628;28;20054;-75
2021/04/24 05:07:52;;;;;;;9.60;4.55;;;;;;;3.89;63.13;101448.94;4996428;28;20467;-76
2021/04/24 05:10:20;;;;;;;11.65;5.10;;;;;;;3.98;62.61;101452.97;4996446;28;20172;-76
2021/04/24 05:12:47;;;;;;;12.98;5.93;;;;;;;4.08;62.36;101452.31;4995869;28;20065;-76
2021/04/24 05:15:14;;;;;;;11.63;5.32;;;;;;;4.13;62.21;101459.84;4996289;28;20061;-76
2021/04/24 05:17:44;;;;;;;13.55;6.28;;;;;;;4.20;62.30;101455.88;4996276;28;20058;-76
2021/04/24 05:20:12;;;;;;;8.30;4.90;;;;;;;4.26;62.07;101456.78;4996110;28;20459;-76
2021/04/24 05:22:40;;;;;;;9.15;4.80;;;;;;;4.35;61.72;101460.00;4995961;28;20070;-76
2021/04/24 05:25:07;;;;;;;11.38;5.20;;;;;;;4.36;61.87;101456.97;4997303;28;20057;-75
2021/04/24 05:27:35;;;;;;;10.77;5.25;;;;;;;4.41;61.95;101450.69;4996232;28;20065;-76
2021/04/24 05:30:04;;;;;;;10.98;5.60;;;;;;;4.44;61.62;101459.31;4996144;28;20065;-75
2021/04/24 05:32:33;;;;;;;11.75;5.53;;;;;;;4.52;61.10;101455.31;4996137;28;20058;-75
2021/04/24 05:35:00;;;;;;;9.90;6.03;;;;;;;4.60;61.43;101459.56;5008964;28;20065;-75
2021/04/24 05:37:27;;;;;;;9.38;4.90;;;;;;;4.67;61.58;101457.50;5015104;28;20468;-75
2021/04/24 05:39:56;;;;;;;10.13;5.20;;;;;;;4.68;61.57;101454.50;5015845;28;20054;-75
2021/04/24 05:42:23;;;;;;;13.65;5.82;;;;;;;4.78;61.82;101456.56;5014754;28;20390;-75
2021/04/24 05:44:50;;;;;;;10.02;5.38;;;;;;;4.90;61.20;101450.13;5003942;28;20050;-75
2021/04/24 05:47:17;;;;;;;9.60;5.30;;;;;;;5.00;61.38;101464.09;4995405;28;20058;-75
2021/04/24 05:49:44;;;;;;;12.10;5.80;;;;;;;5.07;61.36;101459.22;4996401;28;20475;-75
2021/04/24 05:52:10;;;;;;;8.93;5.78;;;;;;;5.20;60.90;101460.78;4995529;28;20065;-75
2021/04/24 05:54:37;;;;;;;10.82;5.18;;;;;;;5.35;60.28;101465.69;4996373;28;20386;-76
2021/04/24 05:57:05;;;;;;;10.13;6.65;;;;;;;5.42;60.24;101467.19;5000645;28;20061;-76
2021/04/24 05:59:32;;;;;;;8.02;5.38;;;;;;;5.53;60.02;101462.63;5014485;28;20053;-76
2021/04/24 06:01:59;;;;;;;10.80;5.50;;;;;;;5.66;61.01;101465.00;5010616;28;20054;-76
2021/04/24 06:04:26;;;;;;;9.52;4.68;;;;;;;5.95;60.68;101467.59;4995298;28;20395;-75
2021/04/24 06:06:52;;;;;;;11.80;5.20;;;;;;;6.25;59.17;101469.03;4995620;28;20054;-76
2021/04/24 06:09:19;;;;;;;9.02;4.93;;;;;;;6.47;57.66;101464.28;4994819;28;20058;-75
2021/04/24 06:11:46;;;;;;;10.63;5.35;;;;;;;6.75;56.52;101473.38;4995382;28;20053;-76
2021/04/24 06:14:14;;;;;;;9.70;4.85;;;;;;;6.98;56.04;101469.41;4995111;28;20058;-75
2021/04/24 06:16:43;;;;;;;7.53;4.47;;;;;;;7.22;55.43;101461.50;4995176;28;20061;-76
2021/04/24 06:19:12;;;;;;;9.05;5.55;;;;;;;7.48;53.91;101461.69;4995066;28;20499;-76
2021/04/24 06:21:39;;;;;;;8.00;4.60;;;;;;;7.76;53.32;101454.88;4995428;28;20387;-76
2021/04/24 06:24:07;;;;;;;12.43;6.15;;;;;;;8.07;53.05;101460.53;4995570;28;20046;-75
2021/04/24 06:26:34;;;;;;;8.88;5.40;;;;;;;8.44;52.01;101449.25;4995170;28;20051;-76
2021/04/24 06:29:00;;;;;;;9.98;6.25;;;;;;;8.78;51.02;101454.25;4995659;28;20403;-75
2021/04/24 06:31:30;;;;;;;10.70;6.05;;;;;;;9.09;50.98;101452.28;4994754;28;20069;-75
2021/04/24 06:33:57;;;;;;;8.75;5.50;;;;;;;9.47;49.10;101455.53;4995262;28;20050;-76
2021/04/24 06:36:24;;;;;;;8.65;4.90;;;;;;;9.78;48.75;101449.84;4995186;28;20051;-76
2021/04/24 06:38:52;;;;;;;8.00;5.32;;;;;;;10.01;47.97;101453.91;5014449;28;20050;-76
2021/04/24 06:41:19;;;;;;;10.05;5.05;;;;;;;10.28;47.82;101447.06;5014411;28;20065;-76
2021/04/24 06:43:46;;;;;;;8.93;5.20;;;;;;;10.52;47.59;101449.97;5010210;28;20053;-76
2021/04/24 06:46:12;;;;;;;9.18;6.03;;;;;;;10.71;46.80;101450.16;4993989;28;20058;-76
2021/04/24 06:48:40;;;;;;;8.02;5.88;;;;;;;10.66;47.25;101452.94;5005852;28;20062;-76
2021/04/24 06:51:07;;;;;;;11.52;5.72;;;;;;;10.65;47.24;101457.69;4994669;28;20065;-76
2021/04/24 06:53:34;;;;;;;8.88;5.70;;;;;;;10.69;47.09;101457.97;4997439;28;20061;-75
2021/04/24 06:56:02;;;;;;;10.15;5.40;;;;;;;10.90;46.45;101451.09;5012161;28;20129;-76
2021/04/24 06:58:28;;;;;;;9.68;5.53;;;;;;;11.10;46.25;101443.63;5014020;28;20113;-76
2021/04/24 07:00:55;;;;;;;10.40;5.93;;;;;;;11.16;46.43;101450.84;5012548;28;20486;-76
2021/04/24 07:03:22;;;;;;;10.13;6.00;;;;;;;11.34;46.50;101449.25;5013460;28;20049;-76
2021/04/24 07:05:53;;;;;;;11.38;5.85;;;;;;;11.66;44.93;101443.00;5014055;28;20064;-76
2021/04/24 07:08:20;;;;;;;10.13;6.10;;;;;;;11.95;44.88;101447.72;5014212;28;20054;-76
2021/04/24 07:10:47;;;;;;;9.63;5.93;;;;;;;12.20;44.46;101452.13;5012191;28;20054;-76
2021/04/24 07:13:14;;;;;;;10.68;6.15;;;;;;;12.53;43.93;101452.16;4994634;28;20057;-76
2021/04/24 07:15:41;;;;;;;10.50;6.32;;;;;;;12.86;43.00;101443.81;4994363;28;20396;-76
2021/04/24 07:18:08;;;;;;;12.05;6.00;;;;;;;13.57;42.42;101436.06;4994217;28;20128;-76
2021/04/24 07:20:35;;;;;;;10.40;5.70;;;;;;;13.57;42.43;101442.50;4994231;28;20054;-76
2021/04/24 07:23:02;;;;;;;10.43;6.35;;;;;;;13.60;41.73;101450.25;4995416;28;20050;-76
2021/04/24 07:25:29;;;;;;;9.27;6.32;;;;;;;13.55;41.71;101446.75;4998747;28;20061;-76
2021/04/24 07:27:58;;;;;;;9.70;6.70;;;;;;;14.24;40.14;101443.88;5013925;28;20532;-76
2021/04/24 07:30:26;;;;;;;12.15;6.85;;;;;;;15.18;37.86;101441.25;5013602;28;20474;-76
2021/04/24 07:32:53;;;;;;;9.07;5.70;;;;;;;14.86;38.12;101440.41;5001940;28;20053;-76
2021/04/24 07:35:20;;;;;;;11.15;5.97;;;;;;;14.76;38.64;101443.47;5013158;28;20062;-76
2021/04/24 07:37:47;;;;;;;12.55;5.78;;;;;;;14.61;39.17;101444.69;5012382;28;20049;-76
2021/04/24 07:40:17;;;;;;;10.98;6.03;;;;;;;14.55;39.04;101443.13;5003732;28;20057;-76
2021/04/24 07:42:44;;;;;;;10.25;5.90;;;;;;;14.28;39.26;101450.50;5012857;28;20065;-76
2021/04/24 07:45:13;;;;;;;10.73;6.20;;;;;;;14.43;39.46;101446.50;5010699;28;20506;-76
2021/04/24 07:47:43;;;;;;;8.00;4.88;;;;;;;14.42;39.36;101439.22;4993600;28;20061;-76
2021/04/24 07:50:14;;;;;;;;;;;;;;;14.45;39.51;101437.75;5006391;28;20065;-76
2021/04/24 07:52:41;;;;;;;7.60;5.03;;;;;;;14.40;39.23;101441.50;5000899;28;19933;-77
2021/04/24 07:55:08;;;;;;;9.07;5.75;;;;;;;15.52;37.51;101436.97;5006412;28;20060;-77
2021/04/24 07:57:36;;;;;;;10.77;6.38;;;;;;;16.67;35.77;101434.03;5013215;28;20602;-77
2021/04/24 08:00:04;;;;;;;8.63;5.60;;;;;;;18.16;32.31;101427.50;5009293;28;20413;-76
2021/04/24 08:02:31;;;;;;;8.90;5.88;;;;;;;19.07;30.71;101424.06;4993730;28;20054;-76
2021/04/24 08:04:58;;;;;;;8.88;5.07;;;;;;;20.47;28.34;101420.97;4994235;28;20051;-77
2021/04/24 08:07:25;;;;;;;8.93;5.50;;;;;;;21.88;26.34;101406.53;5009288;28;20406;-77
2021/04/24 08:09:52;;;;;;;8.27;5.13;;;;;;;21.62;26.32;101418.47;5007901;28;20069;-77
2021/04/24 08:12:20;;;;;;;7.30;5.07;;;;;;;22.63;24.57;101427.25;4994289;28;20050;-77
2021/04/24 08:14:48;;;;;;;6.97;4.80;;;;;;;21.80;25.41;101423.75;4993639;28;20050;-77
2021/04/24 08:17:15;;;;;;;6.53;4.93;;;;;;;21.40;25.79;101427.59;4995180;28;20050;-77
2021/04/24 08:19:42;;;;;;;6.82;5.05;;;;;;;22.17;24.17;101418.53;5000652;28;20438;-76
2021/04/24 08:22:09;;;;;;;8.32;4.65;;;;;;;23.41;22.46;101418.63;4998352;28;20411;-77
2021/04/24 08:24:36;;;;;;;9.02;4.40;;;;;;;24.16;21.96;101409.66;4998210;28;20391;-77
2021/04/24 08:27:03;;;;;;;5.78;4.38;;;;;;;23.01;23.07;101408.56;4997534;28;20054;-77
2021/04/24 08:29:30;;;;;;;7.10;4.50;;;;;;;22.86;23.81;101409.47;5006882;28;20069;-77
2021/04/24 08:31:58;;;;;;;6.95;4.38;;;;;;;22.32;24.01;101408.34;5018066;28;20414;-77
2021/04/24 08:34:29;;;;;;;6.78;5.30;;;;;;;22.62;23.91;101414.28;5010474;28;20383;-77
2021/04/24 08:36:56;;;;;;;6.93;4.80;;;;;;;24.68;21.21;101411.59;4998501;28;20150;-77
2021/04/24 08:39:23;;;;;;;7.32;5.25;;;;;;;26.24;18.68;101412.59;4998573;28;20073;-76
2021/04/24 08:41:50;;;;;;;6.60;4.32;;;;;;;28.19;16.78;101408.84;5016574;28;20057;-76
2021/04/24 08:44:18;;;;;;;6.35;3.90;;;;;;;27.05;18.16;101409.66;5009779;28;20050;-77
2021/04/24 08:46:46;;;;;;;7.13;3.95;;;;;;;26.00;18.31;101413.28;4997312;28;20050;-77
2021/04/24 08:49:17;;;;;;;6.18;4.63;;;;;;;27.02;17.73;101411.28;4999496;28;20054;-76
2021/04/24 08:51:46;;;;;;;8.30;4.80;;;;;;;26.28;18.31;101404.84;4998064;28;20058;-77
2021/04/24 08:54:13;;;;;;;6.97;4.07;;;;;;;26.72;18.02;101409.56;5013154;28;20065;-78
2021/04/24 08:56:40;;;;;;;6.63;3.90;;;;;;;25.08;19.40;101410.00;5022841;28;20050;-77
2021/04/24 08:59:07;;;;;;;6.35;3.75;;;;;;;24.11;20.27;101402.28;4985400;28;20050;-77
2021/04/24 09:01:34;;;;;;;7.85;4.10;;;;;;;23.00;22.06;101406.91;5003011;28;20410;-76
2021/04/24 09:04:02;;;;;;;6.85;4.25;;;;;;;22.14;22.95;101399.44;4994954;28;20065;-76
2021/04/24 09:06:33;;;;;;;7.38;4.85;;;;;;;24.00;20.96;101404.13;4995589;28;20047;-76
2021/04/24 09:09:01;;;;;;;4.70;3.40;;;;;;;25.20;19.31;101396.66;4996405;28;20069;-76
2021/04/24 09:11:29;;;;;;;5.90;3.67;;;;;;;26.37;18.00;101392.25;4995949;28;20505;-76
2021/04/24 09:14:00;;;;;;;8.10;4.60;;;;;;;28.79;15.67;101383.22;4994619;28;20057;-76
2021/04/24 09:16:28;;;;;;;4.82;3.53;;;;;;;28.70;16.22;101386.56;4995871;28;20054;-77
2021/04/24 09:18:58;;;;;;;6.50;4.00;;;;;;;29.59;15.25;101388.00;4995963;28;20057;-77
2021/04/24 09:21:27;;;;;;;4.70;3.75;;;;;;;30.23;13.90;101389.41;4996207;28;20054;-78
2021/04/24 09:23:55;;;;;;;5.75;4.18;;;;;;;31.22;12.80;101384.81;4991944;28;20074;-77
2021/04/24 09:26:25;;;;;;;6.90;3.70;;;;;;;32.05;12.32;101381.34;4977098;28;20055;-77
2021/04/24 09:29:00;;;;;;;5.88;4.05;;;;;;;32.56;11.84;101381.94;4975665;28;21017;-76
2021/04/24 09:31:28;;;;;;;4.85;3.58;;;;;;;32.76;11.31;101376.97;4976797;28;20059;-76
2021/04/24 09:33:57;;;;;;;5.10;3.80;;;;;;;33.51;11.09;101379.31;4977569;28;20098;-77
2021/04/24 09:36:33;;;;;;;6.22;3.80;;;;;;;34.62;10.52;101369.63;4983748;28;20050;-77
2021/04/24 09:39:04;;;;;;;4.82;3.75;;;;;;;35.81;9.66;101378.97;4996193;28;20061;-77
2021/04/24 09:41:37;;;;;;;5.85;4.10;;;;;;;36.90;9.23;101371.53;4996579;28;20554;-76
2021/04/24 09:44:05;;;;;;;4.75;3.90;;;;;;;37.14;8.37;101371.81;4996549;28;20419;-77
2021/04/24 09:46:35;;;;;;;4.75;3.60;;;;;;;36.91;9.07;101378.97;4996320;28;20061;-76
2021/04/24 09:49:10;;;;;;;5.00;4.10;;;;;;;35.98;9.20;101365.09;4996607;28;20051;-76
2021/04/24 09:51:42;;;;;;;5.22;4.05;;;;;;;36.64;9.29;101367.22;4996360;28;20058;-75
2021/04/24 09:54:10;;;;;;;4.45;3.25;;;;;;;37.60;7.90;101361.63;4995981;28;20392;-75
2021/04/24 09:56:37;;;;;;;5.03;3.70;;;;;;;38.29;8.21;101363.91;5002272;28;20050;-75
2021/04/24 09:59:05;;;;;;;4.20;3.25;;;;;;;38.34;8.17;101363.22;5015893;28;20053;-76
2021/04/24 10:01:34;;;;;;;6.40;4.13;;;;;;;38.40;8.17;101363.38;5008922;28;20073;-79
2021/04/24 10:04:02;;;;;;;4.88;3.60;;;;;;;38.26;7.93;101364.88;5010929;28;20474;-77
2021/04/24 10:06:31;;;;;;;8.95;4.55;;;;;;;38.66;7.65;101357.19;5001853;28;20051;-82
2021/04/24 10:09:11;;;;;;;4.70;3.70;;;;;;;38.70;7.78;101361.56;5005357;28;20050;-78
2021/04/24 10:11:38;;;;;;;4.72;3.78;;;;;;;39.33;7.45;101360.94;5024024;28;20054;-78
2021/04/24 10:14:06;;;;;;;7.82;3.75;;;;;;;40.24;6.55;101349.91;5017766;28;20050;-75
2021/04/24 10:16:35;;;;;;;5.60;3.60;;;;;;;39.59;6.72;101352.56;5006480;28;20058;-75
2021/04/24 10:19:04;;;;;;;4.93;3.60;;;;;;;39.00;7.65;101353.06;5009377;28;20456;-77
2021/04/24 10:21:31;;;;;;;5.65;3.72;;;;;;;38.82;7.04;101347.28;5006388;28;20050;-76
2021/04/24 10:24:00;;;;;;;5.28;4.30;;;;;;;38.91;7.36;101345.13;5004297;28;20057;-76
2021/04/24 10:26:31;;;;;;;4.75;3.47;;;;;;;38.85;7.58;101347.09;5014525;28;20073;-75
2021/04/24 10:29:00;;;;;;;7.13;3.85;;;;;;;39.42;7.31;101343.44;5014811;28;20414;-76
2021/04/24 10:31:27;;;;;;;4.70;3.63;;;;;;;39.42;7.56;101343.44;5013869;28;20418;-75
2021/04/24 10:33:56;;;;;;;4.72;3.65;;;;;;;39.61;7.05;101346.19;4998056;28;20053;-75
2021/04/24 10:36:23;;;;;;;5.15;3.95;;;;;;;39.64;6.58;101342.31;4994803;28;20046;-75
2021/04/24 10:38:51;;;;;;;4.60;3.60;;;;;;;38.84;8.03;101339.66;4994729;28;20054;-75
2021/04/24 10:41:27;;;;;;;3.67;3.38;;;;;;;39.11;7.30;101341.66;4993390;28;20422;-75
2021/04/24 10:43:59;;;;;;;4.93;3.85;;;;;;;38.67;7.34;101335.53;5000736;28;20486;-75
2021/04/24 10:46:29;;;;;;;4.43;3.50;;;;;;;37.33;8.08;101339.91;5013420;28;20134;-75
2021/04/24 10:49:29;;;;;;;5.70;3.80;;;;;;;37.98;8.15;101334.97;5013254;28;20383;-75
2021/04/24 10:52:03;;;;;;;7.05;3.88;;;;;;;37.02;8.42;101334.94;5005288;28;20062;-75
2021/04/24 10:54:31;;;;;;;6.43;4.10;;;;;;;36.97;8.33;101339.28;4993379;28;20368;-75
2021/04/24 10:57:00;;;;;;;5.65;3.97;;;;;;;37.29;8.21;101324.72;4998017;28;20410;-74
2021/04/24 10:59:30;;;;;;;6.18;3.83;;;;;;;37.37;8.27;101329.75;5013366;28;20058;-74
2021/04/24 11:02:11;;;;;;;5.20;3.70;;;;;;;37.76;7.74;101332.25;5001384;28;20054;-74
2021/04/24 11:04:47;;;;;;;5.68;3.65;;;;;;;38.51;7.46;101330.88;4993733;28;20054;-75
2021/04/24 11:07:18;;;;;;;6.70;3.60;;;;;;;38.89;7.31;101332.34;4976399;28;20442;-75
2021/04/24 11:09:45;;;;;;;4.65;4.07;;;;;;;38.83;7.04;101313.94;4994377;28;20062;-75
2021/04/24 11:12:13;;;;;;;4.95;3.60;;;;;;;38.90;7.14;101301.94;4993841;28;20065;-75
2021/04/24 11:14:41;;;;;;;6.32;4.13;;;;;;;38.88;7.58;101304.53;4994669;28;20058;-75
2021/04/24 11:17:11;;;;;;;5.53;3.88;;;;;;;39.47;6.75;101304.84;4995314;28;20050;-75
2021/04/24 11:19:43;;;;;;;4.95;3.83;;;;;;;39.31;6.45;101302.34;4993936;28;20066;-75
2021/04/24 11:22:32;;;;;;;6.35;4.05;;;;;;;39.33;6.90;101296.81;4993731;28;20153;-75
2021/04/24 11:25:31;;;;;;;5.50;4.07;;;;;;;38.68;6.93;101291.38;4994560;28;20054;-75
2021/04/24 11:28:05;;;;;;;3.97;3.40;;;;;;;39.20;7.07;101302.09;4994010;28;20065;-75
2021/04/24 11:30:55;;;;;;;5.20;4.20;;;;;;;39.01;6.76;101305.13;4993538;28;20046;-75
2021/04/24 11:33:36;;;;;;;4.32;3.60;;;;;;;38.52;6.83;101294.66;4993388;28;20462;-75